Woodbury, New Jersey
Current Conditions -  °F | °C
As of 2:54 PM on Thursday 23 Oct 2014 (Local Time) from KPHL Reporting Station
Overcast Overcast  
Wind Chill: 55°   Ceiling: 4500
Heat Index: 55°   Visibility: 10mi
Dew Point: 44°   Wind: 25mph
Humidity: 67%   Direction: 320°NW
Pressure: 29.77"   Gusts: 35mph
Location:  39.84°N, 75.15°W
Report Text: KPHL 231854Z 32022G30KT 10SM FEW025 BKN045 OVC070 13/07 A2977 RMK AO2 PK WND 33030/1849 SLP081 T01280067 PNO $
Loading
Personal Weather Stations






























Interactive Weather Map
Tropical Storm Tracking
New forecast layout! Learn more

10-Day Weather Forecast

Advertisements
Track Severe Weather on mobile